Time;durP1;ratioP1;P1;durP2;ratioP2;P2;SDS_P1;SDS_P2;PMS_P1;PMS_P2;Temp;Humidity;BMP_temperature;BMP_pressure;BME280_temperature;BME280_humidity;BME280_pressure;Samples;Min_cycle;Max_cycle;Signal;HPM_P1;HPM_P2
2023/09/29 00:01:40;;;;;;;6.60;4.50;;;;;;;;;;5056952;28;20317;-67
2023/09/29 00:04:10;;;;;;;8.00;4.77;;;;;;;;;;5056984;28;20291;-67
2023/09/29 00:06:38;;;;;;;6.07;4.20;;;;;;;;;;5058555;28;20286;-67
2023/09/29 00:09:07;;;;;;;9.03;4.60;;;;;;;;;;5060773;28;20271;-67
2023/09/29 00:11:35;;;;;;;5.53;4.70;;;;;;;;;;5060722;28;20285;-67
2023/09/29 00:14:03;;;;;;;11.23;5.00;;;;;;;;;;5060593;28;20208;-67
2023/09/29 00:16:31;;;;;;;8.40;4.53;;;;;;;;;;5060674;28;20318;-65
2023/09/29 00:18:59;;;;;;;5.83;4.30;;;;;;;;;;5060765;28;20203;-67
2023/09/29 00:21:28;;;;;;;8.10;4.63;;;;;;;;;;5060333;28;20295;-67
2023/09/29 00:23:56;;;;;;;8.67;4.90;;;;;;;;;;5060375;28;20639;-67
2023/09/29 00:26:24;;;;;;;7.53;4.43;;;;;;;;;;5060338;28;20268;-66
2023/09/29 00:28:52;;;;;;;8.37;4.67;;;;;;;;;;5060359;28;20207;-66
2023/09/29 00:31:20;;;;;;;6.60;4.60;;;;;;;;;;5060156;28;20260;-66
2023/09/29 00:33:48;;;;;;;6.37;4.70;;;;;;;;;;5060648;28;20213;-65
2023/09/29 00:36:16;;;;;;;6.37;4.53;;;;;;;;;;5060080;28;20321;-65
2023/09/29 00:38:48;;;;;;;8.40;4.67;;;;;;;;;;5060076;28;20218;-65
2023/09/29 00:41:15;;;;;;;9.07;4.63;;;;;;;;;;5060102;28;20284;-65
2023/09/29 00:43:44;;;;;;;8.33;4.80;;;;;;;;;;5060224;28;20232;-65
2023/09/29 00:46:12;;;;;;;6.43;4.33;;;;;;;;;;5059868;28;20567;-65
2023/09/29 00:48:40;;;;;;;9.87;4.33;;;;;;;;;;5060173;28;20208;-64
2023/09/29 00:51:08;;;;;;;7.17;4.53;;;;;;;;;;5059796;28;20227;-65
2023/09/29 00:53:38;;;;;;;6.17;4.50;;;;;;;;;;5059864;28;20208;-66
2023/09/29 00:56:11;;;;;;;11.70;4.83;;;;;;;;;;5059726;28;20234;-67
2023/09/29 00:58:40;;;;;;;6.77;4.67;;;;;;;;;;5059988;28;20210;-65
2023/09/29 01:01:11;;;;;;;8.67;4.97;;;;;;;;;;5059761;28;20226;-65
2023/09/29 01:03:39;;;;;;;6.67;4.27;;;;;;;;;;5045825;28;20243;-65
2023/09/29 01:06:08;;;;;;;6.13;4.63;;;;;;;;;;5059338;28;20199;-65
2023/09/29 01:08:39;;;;;;;6.93;4.73;;;;;;;;;;5059346;28;20321;-66
2023/09/29 01:11:09;;;;;;;9.33;4.40;;;;;;;;;;5059791;28;20234;-66
2023/09/29 01:13:40;;;;;;;8.33;4.87;;;;;;;;;;5059374;28;20759;-65
2023/09/29 01:16:08;;;;;;;9.40;4.80;;;;;;;;;;5059607;28;20239;-65
2023/09/29 01:18:37;;;;;;;7.97;4.23;;;;;;;;;;5059287;28;20214;-65
2023/09/29 01:21:06;;;;;;;6.30;5.40;;;;;;;;;;5059066;28;20230;-65
2023/09/29 01:23:35;;;;;;;8.20;4.33;;;;;;;;;;5059165;28;20211;-65
2023/09/29 01:26:05;;;;;;;8.27;4.50;;;;;;;;;;5059534;28;20219;-66
2023/09/29 01:28:33;;;;;;;7.60;4.67;;;;;;;;;;5059476;28;20213;-65
2023/09/29 01:31:01;;;;;;;5.47;3.67;;;;;;;;;;5059313;28;20313;-67
2023/09/29 01:33:29;;;;;;;9.53;4.50;;;;;;;;;;5059058;28;20639;-67
2023/09/29 01:35:57;;;;;;;8.37;4.73;;;;;;;;;;5058866;28;20231;-65
2023/09/29 01:38:27;;;;;;;12.20;4.77;;;;;;;;;;5059133;28;20261;-67
2023/09/29 01:40:56;;;;;;;6.30;4.43;;;;;;;;;;5058752;28;20590;-65
2023/09/29 01:43:24;;;;;;;6.40;4.67;;;;;;;;;;5059247;28;20245;-65
2023/09/29 01:45:52;;;;;;;5.40;4.27;;;;;;;;;;5059192;28;20206;-65
2023/09/29 01:48:21;;;;;;;13.97;4.90;;;;;;;;;;5058967;28;20206;-67
2023/09/29 01:50:49;;;;;;;9.37;5.03;;;;;;;;;;5058592;28;20222;-67
2023/09/29 01:53:17;;;;;;;5.40;4.60;;;;;;;;;;5058841;28;20207;-67
2023/09/29 01:55:45;;;;;;;8.17;5.13;;;;;;;;;;5058550;28;20297;-66
2023/09/29 01:58:14;;;;;;;8.83;4.70;;;;;;;;;;5058599;28;20746;-66
2023/09/29 02:00:42;;;;;;;8.50;4.73;;;;;;;;;;5058517;28;20241;-65
2023/09/29 02:03:11;;;;;;;7.53;4.77;;;;;;;;;;5058410;28;20250;-65
2023/09/29 02:05:39;;;;;;;7.80;4.60;;;;;;;;;;5058372;28;20211;-65
2023/09/29 02:08:08;;;;;;;7.53;5.23;;;;;;;;;;5058540;28;20252;-66
2023/09/29 02:10:36;;;;;;;6.70;4.50;;;;;;;;;;5058474;28;20230;-67
2023/09/29 02:13:05;;;;;;;10.07;5.17;;;;;;;;;;5058476;28;20203;-66
2023/09/29 02:15:35;;;;;;;8.23;4.27;;;;;;;;;;5058462;28;20210;-66
2023/09/29 02:18:04;;;;;;;7.57;4.93;;;;;;;;;;5058408;28;20237;-66
2023/09/29 02:20:33;;;;;;;8.30;4.77;;;;;;;;;;5058033;28;20234;-67
2023/09/29 02:23:02;;;;;;;10.20;4.83;;;;;;;;;;5058236;28;20203;-67
2023/09/29 02:25:30;;;;;;;8.67;4.83;;;;;;;;;;5058044;28;20245;-67
2023/09/29 02:28:01;;;;;;;9.10;4.60;;;;;;;;;;5057839;28;20202;-65
2023/09/29 02:30:29;;;;;;;6.57;5.00;;;;;;;;;;5057566;28;20233;-66
2023/09/29 02:32:59;;;;;;;6.37;4.53;;;;;;;;;;5057979;28;20730;-66
2023/09/29 02:35:28;;;;;;;7.63;5.00;;;;;;;;;;5057932;28;20252;-65
2023/09/29 02:37:56;;;;;;;7.37;4.83;;;;;;;;;;5057958;28;20223;-65
2023/09/29 02:40:24;;;;;;;7.70;4.87;;;;;;;;;;5057971;28;20247;-65
2023/09/29 02:42:52;;;;;;;7.67;4.30;;;;;;;;;;5058093;28;20211;-65
2023/09/29 02:45:20;;;;;;;6.23;5.30;;;;;;;;;;5058103;28;20214;-66
2023/09/29 02:47:48;;;;;;;9.33;4.87;;;;;;;;;;5057910;28;20274;-66
2023/09/29 02:50:18;;;;;;;9.33;4.73;;;;;;;;;;5057573;28;20226;-66
2023/09/29 02:52:46;;;;;;;7.00;4.80;;;;;;;;;;5057963;28;21058;-66
2023/09/29 02:55:15;;;;;;;6.70;4.90;;;;;;;;;;5057480;28;20281;-66
2023/09/29 02:57:44;;;;;;;8.30;4.47;;;;;;;;;;5057791;28;20227;-65
2023/09/29 03:00:18;;;;;;;8.63;4.33;;;;;;;;;;5057355;28;20710;-66
2023/09/29 03:02:47;;;;;;;6.47;4.27;;;;;;;;;;5055007;28;20361;-65
2023/09/29 03:05:16;;;;;;;8.27;4.97;;;;;;;;;;5049345;28;20290;-65
2023/09/29 03:07:46;;;;;;;7.23;4.13;;;;;;;;;;5057460;28;20589;-66
2023/09/29 03:10:14;;;;;;;7.27;4.73;;;;;;;;;;5057418;28;20310;-67
2023/09/29 03:12:43;;;;;;;5.50;4.13;;;;;;;;;;5057481;28;20293;-65
2023/09/29 03:15:15;;;;;;;7.97;5.07;;;;;;;;;;5057715;28;20218;-66
2023/09/29 03:17:43;;;;;;;11.23;4.73;;;;;;;;;;5057255;28;20226;-66
2023/09/29 03:20:12;;;;;;;6.83;4.73;;;;;;;;;;5057331;28;20231;-66
2023/09/29 03:22:41;;;;;;;5.27;4.70;;;;;;;;;;5057237;28;20215;-66
2023/09/29 03:25:11;;;;;;;7.73;4.50;;;;;;;;;;5057464;28;20234;-67
2023/09/29 03:27:40;;;;;;;7.93;4.30;;;;;;;;;;5057311;28;20662;-67
2023/09/29 03:30:09;;;;;;;7.97;4.50;;;;;;;;;;5057451;28;20318;-67
2023/09/29 03:32:37;;;;;;;7.30;4.10;;;;;;;;;;5057555;28;20238;-67
2023/09/29 03:35:06;;;;;;;6.03;4.63;;;;;;;;;;5057160;28;20207;-67
2023/09/29 03:37:36;;;;;;;7.90;4.50;;;;;;;;;;5057291;28;20740;-67
2023/09/29 03:40:08;;;;;;;6.77;4.03;;;;;;;;;;5058188;28;20234;-67
2023/09/29 03:42:38;;;;;;;7.73;4.10;;;;;;;;;;5061214;28;20264;-66
2023/09/29 03:45:07;;;;;;;10.33;4.70;;;;;;;;;;5060796;28;20209;-67
2023/09/29 03:47:36;;;;;;;8.00;4.70;;;;;;;;;;5061531;28;20263;-67
2023/09/29 03:50:07;;;;;;;7.17;4.17;;;;;;;;;;5060982;28;20315;-66
2023/09/29 03:52:35;;;;;;;8.17;4.47;;;;;;;;;;5061287;28;20369;-66
2023/09/29 03:55:03;;;;;;;6.93;3.90;;;;;;;;;;5061118;28;20213;-67
2023/09/29 03:57:32;;;;;;;6.77;3.60;;;;;;;;;;5060933;28;20235;-65
2023/09/29 04:00:01;;;;;;;9.10;4.90;;;;;;;;;;5060977;28;20318;-66
2023/09/29 04:02:31;;;;;;;5.93;4.53;;;;;;;;;;5060806;28;20239;-66
2023/09/29 04:04:59;;;;;;;5.07;4.10;;;;;;;;;;5057718;28;20205;-66
2023/09/29 04:07:27;;;;;;;8.03;4.47;;;;;;;;;;5057581;28;20196;-66
2023/09/29 04:09:55;;;;;;;6.67;4.50;;;;;;;;;;5057144;28;20286;-66
2023/09/29 04:12:23;;;;;;;6.47;4.97;;;;;;;;;;5057780;28;20199;-66
2023/09/29 04:14:52;;;;;;;12.00;4.97;;;;;;;;;;5055693;28;20222;-66
2023/09/29 04:17:22;;;;;;;5.73;4.67;;;;;;;;;;5060673;28;20288;-66
2023/09/29 04:19:50;;;;;;;7.90;5.00;;;;;;;;;;5060551;28;20218;-66
2023/09/29 04:22:18;;;;;;;8.50;5.00;;;;;;;;;;5060418;28;20199;-66
2023/09/29 04:24:46;;;;;;;8.07;5.33;;;;;;;;;;5060430;28;20207;-66
2023/09/29 04:27:14;;;;;;;11.40;5.37;;;;;;;;;;5060484;28;20237;-66
2023/09/29 04:29:42;;;;;;;5.80;4.50;;;;;;;;;;5060433;28;20290;-66
2023/09/29 04:32:10;;;;;;;7.80;4.20;;;;;;;;;;5060656;28;20294;-66
2023/09/29 04:34:40;;;;;;;5.90;4.73;;;;;;;;;;5060077;28;20239;-66
2023/09/29 04:37:08;;;;;;;6.73;4.70;;;;;;;;;;5060327;28;20206;-66
2023/09/29 04:39:37;;;;;;;20.10;5.17;;;;;;;;;;5059909;28;20207;-66
2023/09/29 04:42:06;;;;;;;8.27;4.47;;;;;;;;;;5060409;28;20218;-67
2023/09/29 04:44:34;;;;;;;4.63;4.03;;;;;;;;;;5060076;28;20294;-67
2023/09/29 04:47:02;;;;;;;8.30;4.37;;;;;;;;;;5059975;28;20257;-65
2023/09/29 04:49:30;;;;;;;12.40;5.57;;;;;;;;;;5060000;28;20714;-65
2023/09/29 04:51:59;;;;;;;9.27;4.73;;;;;;;;;;5059368;28;20632;-65
2023/09/29 04:54:27;;;;;;;6.53;4.30;;;;;;;;;;5060051;28;20241;-67
2023/09/29 04:56:55;;;;;;;6.83;4.43;;;;;;;;;;5059287;28;20213;-65
2023/09/29 04:59:23;;;;;;;12.20;4.80;;;;;;;;;;5057049;28;20234;-65
2023/09/29 05:01:51;;;;;;;5.67;3.87;;;;;;;;;;5059510;28;20223;-65
2023/09/29 05:04:19;;;;;;;8.97;4.77;;;;;;;;;;5054876;28;20207;-65
2023/09/29 05:06:48;;;;;;;7.17;4.03;;;;;;;;;;5054500;28;20207;-65
2023/09/29 05:09:17;;;;;;;9.33;4.90;;;;;;;;;;5059503;28;20702;-66
2023/09/29 05:11:45;;;;;;;9.67;4.33;;;;;;;;;;5059456;28;20245;-69
2023/09/29 05:14:13;;;;;;;8.20;4.80;;;;;;;;;;5059556;28;20256;-70
2023/09/29 05:16:41;;;;;;;8.37;4.97;;;;;;;;;;5059361;28;20241;-68
2023/09/29 05:19:09;;;;;;;7.30;4.77;;;;;;;;;;5059014;28;20763;-69
2023/09/29 05:21:37;;;;;;;9.20;4.53;;;;;;;;;;5059167;28;20266;-68
2023/09/29 05:24:06;;;;;;;8.43;5.33;;;;;;;;;;5059558;28;20245;-69
2023/09/29 05:26:35;;;;;;;9.77;4.77;;;;;;;;;;5059428;28;20209;-68
2023/09/29 05:29:04;;;;;;;6.63;4.57;;;;;;;;;;5059207;28;20199;-69
2023/09/29 05:31:32;;;;;;;8.27;4.87;;;;;;;;;;5059226;28;20641;-70
2023/09/29 05:34:00;;;;;;;8.07;4.53;;;;;;;;;;5059211;28;20238;-68
2023/09/29 05:36:29;;;;;;;8.50;5.33;;;;;;;;;;5059293;28;20266;-69
2023/09/29 05:38:57;;;;;;;7.27;5.10;;;;;;;;;;5059116;28;20318;-68
2023/09/29 05:41:25;;;;;;;10.83;5.07;;;;;;;;;;5059193;28;20227;-69
2023/09/29 05:43:55;;;;;;;9.20;4.63;;;;;;;;;;5058899;28;20221;-69
2023/09/29 05:46:23;;;;;;;10.23;5.10;;;;;;;;;;5059146;28;20276;-69
2023/09/29 05:48:51;;;;;;;5.80;4.83;;;;;;;;;;5059031;28;20210;-69
2023/09/29 05:51:18;;;;;;;13.43;5.40;;;;;;;;;;5058680;28;20250;-67
2023/09/29 05:53:47;;;;;;;9.93;4.80;;;;;;;;;;5058862;28;20245;-68
2023/09/29 05:56:15;;;;;;;12.03;6.00;;;;;;;;;;5058937;28;20207;-69
2023/09/29 05:58:43;;;;;;;13.27;5.10;;;;;;;;;;5054853;28;20301;-69
2023/09/29 06:01:13;;;;;;;11.77;5.43;;;;;;;;;;5062086;28;20237;-68
2023/09/29 06:03:42;;;;;;;6.30;4.37;;;;;;;;;;5057239;28;20265;-68
2023/09/29 06:06:10;;;;;;;13.77;5.17;;;;;;;;;;5058127;28;20572;-67
2023/09/29 06:08:39;;;;;;;8.57;5.37;;;;;;;;;;5058464;28;20199;-67
2023/09/29 06:11:11;;;;;;;9.17;5.07;;;;;;;;;;5058372;28;20269;-67
2023/09/29 06:13:40;;;;;;;8.70;5.30;;;;;;;;;;5058417;28;20297;-65
2023/09/29 06:16:08;;;;;;;8.20;4.80;;;;;;;;;;5049643;28;20295;-65
2023/09/29 06:18:37;;;;;;;9.20;5.80;;;;;;;;;;5057137;28;20271;-65
2023/09/29 06:21:06;;;;;;;13.13;5.10;;;;;;;;;;5058185;28;20316;-65
2023/09/29 06:23:34;;;;;;;9.53;5.10;;;;;;;;;;5058306;28;20295;-68
2023/09/29 06:26:03;;;;;;;8.87;5.53;;;;;;;;;;5058667;28;20296;-64
2023/09/29 06:28:30;;;;;;;12.97;5.87;;;;;;;;;;5058359;28;20210;-65
2023/09/29 06:30:59;;;;;;;10.00;6.20;;;;;;;;;;5057762;28;20312;-66
2023/09/29 06:33:27;;;;;;;12.93;6.60;;;;;;;;;;5044261;28;20205;-65
2023/09/29 06:35:56;;;;;;;9.10;5.87;;;;;;;;;;5057893;28;20224;-66
2023/09/29 06:38:24;;;;;;;13.43;5.93;;;;;;;;;;5057809;28;20229;-66
2023/09/29 06:40:52;;;;;;;11.20;6.60;;;;;;;;;;5058016;28;20689;-67
2023/09/29 06:43:20;;;;;;;10.07;5.97;;;;;;;;;;5058254;28;20211;-66
2023/09/29 06:45:49;;;;;;;10.67;5.47;;;;;;;;;;5057860;28;20289;-66
2023/09/29 06:48:20;;;;;;;13.73;6.43;;;;;;;;;;5057817;28;20221;-66
2023/09/29 06:50:48;;;;;;;9.40;6.10;;;;;;;;;;5056573;28;20230;-66
2023/09/29 06:53:18;;;;;;;9.87;6.07;;;;;;;;;;5057999;28;20233;-66
2023/09/29 06:55:46;;;;;;;12.77;6.73;;;;;;;;;;5057581;28;20313;-66
2023/09/29 06:58:14;;;;;;;12.63;6.60;;;;;;;;;;5057554;28;20292;-66
2023/09/29 07:00:44;;;;;;;10.03;5.57;;;;;;;;;;5058199;28;20774;-66
2023/09/29 07:03:12;;;;;;;10.60;5.70;;;;;;;;;;5053166;28;20227;-66
2023/09/29 07:05:41;;;;;;;12.23;6.63;;;;;;;;;;5050747;28;20211;-66
2023/09/29 07:08:09;;;;;;;11.30;6.43;;;;;;;;;;5057649;28;20211;-67
2023/09/29 07:10:38;;;;;;;14.57;6.37;;;;;;;;;;5057948;28;20223;-66
2023/09/29 07:13:06;;;;;;;13.40;6.73;;;;;;;;;;5057942;28;20292;-66
2023/09/29 07:15:34;;;;;;;13.20;7.23;;;;;;;;;;5057761;28;20294;-67
2023/09/29 07:18:02;;;;;;;15.90;6.10;;;;;;;;;;5057900;28;20260;-66
2023/09/29 07:20:30;;;;;;;12.97;5.83;;;;;;;;;;5057232;28;20243;-67
2023/09/29 07:22:58;;;;;;;10.93;6.47;;;;;;;;;;5057325;28;20582;-67
2023/09/29 07:25:26;;;;;;;13.40;6.33;;;;;;;;;;5057541;28;20244;-66
2023/09/29 07:27:56;;;;;;;9.57;6.00;;;;;;;;;;5057324;28;20206;-67
2023/09/29 07:30:24;;;;;;;9.07;5.13;;;;;;;;;;5057453;28;20307;-66
2023/09/29 07:32:52;;;;;;;10.63;5.80;;;;;;;;;;5057534;28;20292;-66
2023/09/29 07:35:20;;;;;;;16.47;6.57;;;;;;;;;;5057308;28;20267;-66
2023/09/29 07:37:48;;;;;;;10.93;6.40;;;;;;;;;;5057384;28;20212;-66
2023/09/29 07:40:16;;;;;;;12.60;5.60;;;;;;;;;;5057221;28;20291;-66
2023/09/29 07:42:44;;;;;;;10.30;5.83;;;;;;;;;;5057214;28;20292;-67
2023/09/29 07:45:13;;;;;;;10.87;5.93;;;;;;;;;;5057243;28;20626;-66
2023/09/29 07:47:41;;;;;;;13.13;6.30;;;;;;;;;;5057478;28;20214;-67
2023/09/29 07:50:10;;;;;;;14.60;5.83;;;;;;;;;;5056879;28;20591;-66
2023/09/29 07:52:39;;;;;;;9.87;5.73;;;;;;;;;;5057690;28;20240;-66
2023/09/29 07:55:07;;;;;;;13.53;5.80;;;;;;;;;;5056982;28;20270;-66
2023/09/29 07:57:35;;;;;;;12.53;5.63;;;;;;;;;;5057040;28;20280;-66
2023/09/29 08:00:04;;;;;;;13.97;6.23;;;;;;;;;;5057144;28;20236;-65
2023/09/29 08:02:34;;;;;;;16.17;6.30;;;;;;;;;;5044050;28;20245;-66
2023/09/29 08:05:03;;;;;;;14.73;5.97;;;;;;;;;;5056959;28;20706;-66
2023/09/29 08:07:30;;;;;;;15.07;6.57;;;;;;;;;;5057306;28;20282;-66
2023/09/29 08:09:58;;;;;;;15.30;6.50;;;;;;;;;;5057014;28;20311;-65
2023/09/29 08:12:26;;;;;;;17.87;6.87;;;;;;;;;;5056388;28;20576;-66
2023/09/29 08:14:54;;;;;;;13.90;6.90;;;;;;;;;;5045463;28;20734;-67
2023/09/29 08:17:22;;;;;;;10.27;6.03;;;;;;;;;;5057370;28;20239;-67
2023/09/29 08:19:52;;;;;;;15.03;6.70;;;;;;;;;;5056702;28;20691;-67
2023/09/29 08:22:20;;;;;;;15.93;5.80;;;;;;;;;;5057309;28;20206;-66
2023/09/29 08:25:07;;;;;;;13.90;6.67;;;;;;;;;;5057020;28;20211;-64
2023/09/29 08:27:36;;;;;;;13.50;5.60;;;;;;;;;;5059173;28;20210;-65
2023/09/29 08:30:05;;;;;;;10.60;6.03;;;;;;;;;;5060295;28;20226;-64
2023/09/29 08:32:33;;;;;;;11.33;6.23;;;;;;;;;;5060587;28;20213;-64
2023/09/29 08:35:03;;;;;;;9.03;5.97;;;;;;;;;;5060326;28;20211;-64
2023/09/29 08:37:31;;;;;;;11.67;6.37;;;;;;;;;;5060446;28;20243;-66
2023/09/29 08:39:59;;;;;;;14.63;6.20;;;;;;;;;;5059903;28;20240;-66
2023/09/29 08:42:30;;;;;;;14.07;7.13;;;;;;;;;;5060559;28;20208;-66
2023/09/29 08:44:59;;;;;;;15.37;6.70;;;;;;;;;;5060387;28;20208;-66
2023/09/29 08:47:29;;;;;;;18.70;6.80;;;;;;;;;;5060274;28;20209;-66
2023/09/29 08:49:58;;;;;;;14.37;7.33;;;;;;;;;;5059998;28;20229;-66
2023/09/29 08:52:29;;;;;;;12.37;6.07;;;;;;;;;;5060200;28;20277;-66
2023/09/29 08:54:57;;;;;;;15.47;6.93;;;;;;;;;;5059881;28;20220;-66
2023/09/29 08:57:26;;;;;;;13.33;6.37;;;;;;;;;;5060010;28;20385;-66
2023/09/29 08:59:54;;;;;;;15.87;6.20;;;;;;;;;;5059875;28;20225;-66
2023/09/29 09:02:24;;;;;;;15.10;6.43;;;;;;;;;;5059519;28;20617;-67
2023/09/29 09:04:52;;;;;;;14.23;6.40;;;;;;;;;;5059598;28;20736;-66
2023/09/29 09:07:21;;;;;;;11.43;6.17;;;;;;;;;;5059912;28;20297;-66
2023/09/29 09:09:50;;;;;;;17.43;8.00;;;;;;;;;;5059509;28;20268;-66
2023/09/29 09:12:18;;;;;;;13.10;6.80;;;;;;;;;;5059629;28;20241;-66
2023/09/29 09:14:46;;;;;;;15.43;7.33;;;;;;;;;;5059727;28;20300;-66
2023/09/29 09:17:14;;;;;;;11.13;6.30;;;;;;;;;;5059821;28;20217;-66
2023/09/29 09:19:43;;;;;;;13.43;6.73;;;;;;;;;;5058914;28;20645;-66
2023/09/29 09:22:16;;;;;;;15.10;6.27;;;;;;;;;;5059621;28;20214;-66
2023/09/29 09:24:49;;;;;;;12.07;6.57;;;;;;;;;;5059526;28;20240;-66
2023/09/29 09:27:18;;;;;;;12.53;5.93;;;;;;;;;;5059606;28;20203;-66
2023/09/29 09:29:46;;;;;;;17.20;6.50;;;;;;;;;;5059132;28;20297;-66
2023/09/29 09:32:15;;;;;;;11.57;6.07;;;;;;;;;;5059449;28;20230;-66
2023/09/29 09:34:43;;;;;;;14.40;5.80;;;;;;;;;;5059137;28;20207;-66
2023/09/29 09:37:12;;;;;;;11.77;5.80;;;;;;;;;;5059171;28;20207;-67
2023/09/29 09:39:42;;;;;;;12.10;5.93;;;;;;;;;;5058519;28;20244;-65
2023/09/29 09:42:12;;;;;;;14.60;6.83;;;;;;;;;;5059190;28;20204;-66
2023/09/29 09:44:42;;;;;;;16.33;6.03;;;;;;;;;;5059220;28;20214;-66
2023/09/29 09:47:14;;;;;;;14.70;6.80;;;;;;;;;;5059147;28;20207;-66
2023/09/29 09:49:47;;;;;;;14.40;6.47;;;;;;;;;;5058584;28;20256;-66
2023/09/29 09:52:20;;;;;;;18.60;6.40;;;;;;;;;;5059245;28;20323;-66
2023/09/29 09:54:50;;;;;;;16.47;6.40;;;;;;;;;;5058651;28;20310;-65
2023/09/29 09:57:20;;;;;;;8.73;4.97;;;;;;;;;;5058944;28;20289;-67
2023/09/29 09:59:51;;;;;;;13.97;6.00;;;;;;;;;;5058785;28;20260;-67
2023/09/29 10:02:20;;;;;;;10.17;5.17;;;;;;;;;;5047989;28;20281;-65
2023/09/29 10:04:49;;;;;;;13.80;5.87;;;;;;;;;;5058151;28;20678;-65
2023/09/29 10:07:20;;;;;;;11.93;5.63;;;;;;;;;;5058365;28;20203;-67
2023/09/29 10:09:49;;;;;;;10.13;5.60;;;;;;;;;;5058200;28;20207;-65
2023/09/29 10:12:31;;;;;;;11.37;5.47;;;;;;;;;;5055112;28;20200;-66
2023/09/29 10:15:03;;;;;;;11.07;4.70;;;;;;;;;;5055022;28;20236;-65
2023/09/29 10:17:39;;;;;;;13.43;5.73;;;;;;;;;;5058389;28;20229;-66
2023/09/29 10:20:19;;;;;;;12.63;5.20;;;;;;;;;;5057645;28;20224;-66
2023/09/29 10:22:48;;;;;;;11.03;4.57;;;;;;;;;;5058146;28;20214;-66
2023/09/29 10:25:20;;;;;;;7.57;4.27;;;;;;;;;;5058066;28;20214;-68
2023/09/29 10:27:50;;;;;;;8.00;4.90;;;;;;;;;;5058105;28;20266;-67
2023/09/29 10:30:26;;;;;;;8.30;5.10;;;;;;;;;;5057779;28;20335;-66
2023/09/29 10:33:05;;;;;;;6.03;4.40;;;;;;;;;;5061503;28;20207;-66
2023/09/29 10:35:35;;;;;;;8.87;4.33;;;;;;;;;;5065391;28;20230;-66
2023/09/29 10:38:12;;;;;;;7.43;4.43;;;;;;;;;;5067128;28;20205;-66
2023/09/29 10:40:42;;;;;;;6.70;3.90;;;;;;;;;;5067410;28;20224;-66
2023/09/29 10:43:12;;;;;;;10.10;4.33;;;;;;;;;;5068888;28;20558;-66
2023/09/29 10:45:41;;;;;;;6.40;4.20;;;;;;;;;;5066729;28;20199;-66
2023/09/29 10:48:10;;;;;;;11.77;3.90;;;;;;;;;;5066599;28;20633;-66
2023/09/29 10:50:43;;;;;;;5.87;4.20;;;;;;;;;;5067585;28;20220;-66
2023/09/29 10:53:11;;;;;;;9.90;4.20;;;;;;;;;;5065012;28;20200;-66
2023/09/29 10:55:43;;;;;;;7.37;4.20;;;;;;;;;;5067855;28;20235;-66
2023/09/29 10:58:12;;;;;;;4.63;3.60;;;;;;;;;;5060498;28;20204;-66
2023/09/29 11:00:47;;;;;;;8.93;4.30;;;;;;;;;;5056481;28;20218;-66
2023/09/29 11:03:15;;;;;;;6.60;3.73;;;;;;;;;;5057532;28;20272;-66
2023/09/29 11:05:50;;;;;;;6.73;3.60;;;;;;;;;;5057570;28;20209;-66
2023/09/29 11:08:20;;;;;;;7.90;3.90;;;;;;;;;;5057607;28;20207;-66
2023/09/29 11:10:55;;;;;;;7.77;4.03;;;;;;;;;;5058041;28;20251;-66
2023/09/29 11:13:24;;;;;;;6.37;4.17;;;;;;;;;;5057172;28;20203;-66
2023/09/29 11:15:54;;;;;;;7.07;4.17;;;;;;;;;;5052193;28;20227;-65
2023/09/29 11:18:29;;;;;;;4.60;3.67;;;;;;;;;;5054897;28;20203;-65
2023/09/29 11:21:00;;;;;;;7.97;3.87;;;;;;;;;;5052627;28;20223;-64
2023/09/29 11:23:39;;;;;;;7.50;3.90;;;;;;;;;;5054298;28;20239;-65
2023/09/29 11:26:09;;;;;;;8.23;4.23;;;;;;;;;;5054385;28;20206;-64
2023/09/29 11:28:41;;;;;;;7.70;3.63;;;;;;;;;;5054446;28;20203;-65
2023/09/29 11:31:12;;;;;;;4.37;3.43;;;;;;;;;;5057037;28;20228;-66
2023/09/29 11:33:40;;;;;;;8.40;4.00;;;;;;;;;;5056669;28;20267;-66
2023/09/29 11:36:11;;;;;;;5.93;3.37;;;;;;;;;;5056962;28;20219;-66
2023/09/29 11:38:39;;;;;;;6.47;3.13;;;;;;;;;;5057183;28;20282;-66
2023/09/29 11:41:07;;;;;;;4.13;3.40;;;;;;;;;;5056964;28;20229;-66
2023/09/29 11:43:36;;;;;;;5.37;3.60;;;;;;;;;;5056561;28;20766;-66
2023/09/29 11:46:04;;;;;;;6.00;3.90;;;;;;;;;;5057530;28;20209;-64
2023/09/29 11:48:35;;;;;;;7.10;3.70;;;;;;;;;;5057591;28;20296;-64
2023/09/29 11:51:04;;;;;;;7.97;3.63;;;;;;;;;;5057643;28;20237;-64
2023/09/29 11:53:32;;;;;;;5.83;3.77;;;;;;;;;;5057665;28;20216;-66
2023/09/29 11:56:01;;;;;;;4.90;3.27;;;;;;;;;;5057177;28;20296;-65
2023/09/29 11:58:29;;;;;;;6.50;3.30;;;;;;;;;;5056776;28;20224;-63
2023/09/29 12:01:00;;;;;;;8.57;3.80;;;;;;;;;;5057028;28;20264;-65
2023/09/29 12:03:28;;;;;;;5.57;4.10;;;;;;;;;;5060227;28;20240;-65
2023/09/29 12:06:00;;;;;;;4.37;3.43;;;;;;;;;;5053552;28;20240;-65
2023/09/29 12:08:29;;;;;;;6.87;4.50;;;;;;;;;;5057479;28;20232;-66
2023/09/29 12:10:57;;;;;;;9.47;4.40;;;;;;;;;;5060348;28;20229;-65
2023/09/29 12:13:26;;;;;;;8.97;4.30;;;;;;;;;;5060455;28;20209;-65
2023/09/29 12:15:54;;;;;;;7.53;4.00;;;;;;;;;;5060216;28;20249;-65
2023/09/29 12:18:23;;;;;;;4.80;3.87;;;;;;;;;;5060682;28;20737;-64
2023/09/29 12:20:52;;;;;;;6.13;4.20;;;;;;;;;;5060427;28;20241;-66
2023/09/29 12:23:22;;;;;;;6.93;4.97;;;;;;;;;;5060096;28;20225;-64
2023/09/29 12:25:50;;;;;;;5.37;4.10;;;;;;;;;;5059859;28;20231;-66
2023/09/29 12:28:21;;;;;;;6.60;5.23;;;;;;;;;;5060522;28;20298;-66
2023/09/29 12:30:48;;;;;;;4.63;3.60;;;;;;;;;;5060104;28;20653;-66
2023/09/29 12:33:17;;;;;;;5.03;4.07;;;;;;;;;;5060188;28;20722;-66
2023/09/29 12:35:45;;;;;;;5.67;4.03;;;;;;;;;;5060262;28;20681;-67
2023/09/29 12:38:13;;;;;;;6.13;4.30;;;;;;;;;;5060197;28;20711;-66
2023/09/29 12:40:44;;;;;;;5.60;4.50;;;;;;;;;;5053820;28;20226;-65
2023/09/29 12:43:12;;;;;;;11.03;4.10;;;;;;;;;;5056408;28;20244;-65
2023/09/29 12:45:40;;;;;;;6.87;5.07;;;;;;;;;;5060120;28;20214;-65
2023/09/29 12:48:08;;;;;;;5.23;3.90;;;;;;;;;;5059938;28;20273;-65
2023/09/29 12:50:38;;;;;;;7.80;5.00;;;;;;;;;;5059457;28;20226;-65
2023/09/29 12:53:06;;;;;;;8.70;4.40;;;;;;;;;;5059674;28;20233;-65
2023/09/29 12:55:34;;;;;;;7.83;4.83;;;;;;;;;;5059617;28;20297;-65
2023/09/29 12:58:07;;;;;;;7.13;4.20;;;;;;;;;;5059716;28;20240;-65
2023/09/29 13:00:35;;;;;;;4.10;3.70;;;;;;;;;;5059277;28;20725;-65
2023/09/29 13:03:04;;;;;;;7.70;4.30;;;;;;;;;;5059394;28;20292;-65
2023/09/29 13:05:35;;;;;;;6.80;4.80;;;;;;;;;;5059607;28;20300;-65
2023/09/29 13:08:05;;;;;;;6.20;3.60;;;;;;;;;;5046953;28;20253;-65
2023/09/29 13:10:36;;;;;;;8.03;4.07;;;;;;;;;;5059854;28;20237;-65
2023/09/29 13:13:05;;;;;;;5.57;4.13;;;;;;;;;;5059418;28;20202;-65
2023/09/29 13:15:35;;;;;;;9.37;4.53;;;;;;;;;;5059505;28;20241;-66
2023/09/29 13:18:03;;;;;;;6.40;3.67;;;;;;;;;;5059805;28;20289;-66
2023/09/29 13:20:32;;;;;;;3.77;3.33;;;;;;;;;;5059323;28;20226;-66
2023/09/29 13:23:00;;;;;;;9.13;3.80;;;;;;;;;;5059621;28;20264;-67
2023/09/29 13:25:29;;;;;;;5.27;3.40;;;;;;;;;;5059662;28;20208;-67
2023/09/29 13:27:57;;;;;;;5.33;3.53;;;;;;;;;;5059481;28;20209;-66
2023/09/29 13:30:25;;;;;;;4.83;3.23;;;;;;;;;;5058978;28;20334;-66
2023/09/29 13:33:05;;;;;;;4.93;3.00;;;;;;;;;;5058388;28;20800;-65
2023/09/29 13:35:33;;;;;;;8.97;3.40;;;;;;;;;;5058738;28;20207;-66
2023/09/29 13:38:01;;;;;;;5.30;3.40;;;;;;;;;;5058888;28;20239;-67
2023/09/29 13:40:29;;;;;;;4.77;3.40;;;;;;;;;;5056758;28;20225;-65
2023/09/29 13:42:57;;;;;;;6.47;3.90;;;;;;;;;;5051036;28;20223;-67
2023/09/29 13:45:25;;;;;;;6.87;3.30;;;;;;;;;;5059239;28;20219;-67
2023/09/29 13:47:53;;;;;;;6.00;3.57;;;;;;;;;;5059331;28;20213;-65
2023/09/29 13:50:22;;;;;;;4.37;2.93;;;;;;;;;;5058759;28;20681;-66
2023/09/29 13:52:50;;;;;;;6.63;3.57;;;;;;;;;;5059190;28;20208;-66
2023/09/29 13:55:18;;;;;;;4.83;3.27;;;;;;;;;;5058935;28;20216;-66
2023/09/29 13:57:46;;;;;;;5.63;3.83;;;;;;;;;;5059025;28;20210;-67
2023/09/29 14:00:18;;;;;;;4.47;3.20;;;;;;;;;;5058520;28;20232;-65
2023/09/29 14:02:46;;;;;;;4.10;2.63;;;;;;;;;;5058570;28;20271;-67
2023/09/29 14:05:16;;;;;;;3.90;2.40;;;;;;;;;;5058392;28;20670;-65
2023/09/29 14:07:45;;;;;;;10.03;3.70;;;;;;;;;;5058358;28;20570;-65
2023/09/29 14:10:16;;;;;;;4.83;3.20;;;;;;;;;;5058294;28;20226;-65
2023/09/29 14:12:44;;;;;;;5.67;3.37;;;;;;;;;;5058475;28;20290;-65
2023/09/29 14:15:12;;;;;;;5.67;3.10;;;;;;;;;;5058707;28;20210;-65
2023/09/29 14:17:40;;;;;;;5.13;3.30;;;;;;;;;;5058591;28;20206;-65
2023/09/29 14:20:09;;;;;;;4.70;2.93;;;;;;;;;;5058343;28;20225;-65
2023/09/29 14:22:37;;;;;;;4.17;2.43;;;;;;;;;;5058315;28;20229;-65
2023/09/29 14:25:07;;;;;;;9.20;3.10;;;;;;;;;;5057692;28;20209;-65
2023/09/29 14:27:35;;;;;;;5.63;2.87;;;;;;;;;;5058723;28;20213;-65
2023/09/29 14:30:06;;;;;;;6.00;2.83;;;;;;;;;;5058388;28;20226;-65
2023/09/29 14:32:34;;;;;;;6.13;3.40;;;;;;;;;;5058129;28;20212;-65
2023/09/29 14:35:02;;;;;;;5.47;3.43;;;;;;;;;;5057746;28;20209;-65
2023/09/29 14:37:32;;;;;;;4.20;2.77;;;;;;;;;;5044970;28;20213;-65
2023/09/29 14:40:00;;;;;;;6.53;2.43;;;;;;;;;;5057636;28;20607;-65
2023/09/29 14:42:29;;;;;;;7.88;2.95;;;;;;;;;;5057994;28;20243;-65
2023/09/29 14:44:57;;;;;;;3.83;2.70;;;;;;;;;;5057945;28;20267;-65
2023/09/29 14:47:25;;;;;;;7.13;3.00;;;;;;;;;;5057752;28;20556;-67
2023/09/29 14:49:54;;;;;;;6.07;3.20;;;;;;;;;;5057797;28;20256;-65